Florida Voyager — WDF4764 — position and weather

sailwx.info

Track history (hours):
 
Tides and Currents Weather Stations Pressure Air Temp Water Temp Dewpoint Dewpoint Depression Visibility Wind Speed Wind Dir Waves Ship Positions

Florida Voyager

Owner: Chevron USA Inc., Washington, DC. More information available from US FCC via Universal Licensing System and Coast Guard Vessel Documentation Center.

Last reported at 2018-Feb-16 06:09 UTC. Time now 2018-Feb-19 02:36 UTC.
Position N 28°28' W 093°18'.

Length 183 m; draft 8.1 m.

Type: Tanker. MMSI: 367455580.

Date/timePositionNaut miles runAvg speedWind from/ knotsBaromVisibWave heightAir tempDewpointWater temp
2018-Feb-16 06:09N 28°28' W 093°18'1114.1
2018-Feb-16 05:24N 28°35' W 093°28'1014.1
2018-Feb-16 04:40N 28°41' W 093°37'314.1
2018-Feb-16 04:30N 28°43' W 093°39'713.8
2018-Feb-16 04:00N 28°46' W 093°46'612.6
2018-Feb-16 03:30N 28°50' W 093°52'612.4
2018-Feb-16 03:00N 28°53' W 093°58'612.3
2018-Feb-16 02:30N 28°57' W 094°03'712.5
2018-Feb-16 01:57N 29°01' W 094°10'612.5
2018-Feb-16 01:30N 29°04' W 094°15'712.5
2018-Feb-16 00:58N 29°08' W 094°22'612.2
2018-Feb-16 00:27N 29°10' W 094°28'512.3
2018-Feb-16 00:00N 29°14' W 094°33'711.4
2018-Feb-15 23:21N 29°19' W 094°39'3 9.3
2018-Feb-15 22:59N 29°21' W 094°42'2 0.2
2018-Feb-15 09:46N 29°21' W 094°45'0 0.0
2018-Feb-15 08:34N 29°21' W 094°45'0 0.0
2018-Feb-15 08:25N 29°21' W 094°45'0 0.0
2018-Feb-15 07:58N 29°21' W 094°45'0 0.1
2018-Feb-15 07:01N 29°21' W 094°45'0 0.1
2018-Feb-15 06:49N 29°21' W 094°45'0 0.1
2018-Feb-15 04:52N 29°21' W 094°45'0 0.1
2018-Feb-15 04:16N 29°21' W 094°45'0 0.0
2018-Feb-15 03:49N 29°21' W 094°45'0 0.1
2018-Feb-15 03:22N 29°21' W 094°45'0 0.0
2018-Feb-15 02:52N 29°21' W 094°45'0 0.0
2018-Feb-14 17:49N 29°21' W 094°44'0 0.0
2018-Feb-14 17:13N 29°21' W 094°44'0 0.1
2018-Feb-14 16:58N 29°21' W 094°44'0 0.0
2018-Feb-14 15:40N 29°21' W 094°44'0 0.0
2018-Feb-14 04:19N 29°21' W 094°45'5 0.4
2018-Feb-13 16:22N 29°24' W 094°49'512.9
2018-Feb-13 15:59N 29°29' W 094°52'612.3
2018-Feb-13 15:30N 29°34' W 094°55'4 8.6
2018-Feb-13 15:00N 29°37' W 094°59'2 4.8
2018-Feb-13 14:30N 29°37' W 095°02'0 0.1
2018-Feb-13 13:58N 29°37' W 095°02'0 0.0
2018-Feb-13 13:25N 29°37' W 095°02'0 0.0
2018-Feb-13 12:58N 29°37' W 095°02'0 0.0
2018-Feb-13 12:28N 29°37' W 095°02'0 0.0
2018-Feb-13 11:55N 29°37' W 095°02'0 0.0
2018-Feb-13 11:28N 29°37' W 095°02'0 0.0
2018-Feb-13 10:58N 29°37' W 095°02'0 0.0
2018-Feb-13 10:28N 29°37' W 095°02'0 0.0
2018-Feb-13 09:58N 29°37' W 095°02'0 0.0
2018-Feb-13 02:07N 29°37' W 095°02'0 0.0
2018-Feb-13 01:58N 29°37' W 095°02'0 0.0
2018-Feb-13 01:25N 29°37' W 095°02'0 0.0
2018-Feb-13 00:55N 29°37' W 095°02'0 0.0
2018-Feb-13 00:28N 29°37' W 095°02'0 0.0
2018-Feb-12 23:58N 29°37' W 095°02'0 0.0
2018-Feb-12 23:28N 29°37' W 095°02'0 0.0
2018-Feb-12 22:58N 29°37' W 095°02'0 0.0
2018-Feb-12 22:28N 29°37' W 095°02'0 0.0
2018-Feb-12 21:58N 29°37' W 095°02'0 0.0
2018-Feb-12 21:28N 29°37' W 095°02'0 0.0
2018-Feb-12 20:58N 29°37' W 095°02'0 0.0
2018-Feb-12 20:28N 29°37' W 095°02'0 0.0
2018-Feb-12 19:58N 29°37' W 095°02'0 0.0
2018-Feb-12 19:28N 29°37' W 095°02'0 0.0
2018-Feb-12 18:58N 29°37' W 095°02'0 0.0
2018-Feb-12 18:25N 29°37' W 095°02'0 0.0
2018-Feb-12 17:58N 29°37' W 095°02'0 0.0
2018-Feb-12 17:28N 29°37' W 095°02'0 0.0
2018-Feb-12 16:55N 29°37' W 095°02'0 0.0
2018-Feb-12 16:28N 29°37' W 095°02'0 0.0
2018-Feb-12 15:58N 29°37' W 095°02'0 0.0
2018-Feb-12 15:16N 29°37' W 095°02'0 0.0
2018-Feb-12 14:58N 29°37' W 095°02'0 0.0
2018-Feb-12 14:28N 29°37' W 095°02'0 0.0
2018-Feb-12 13:58N 29°37' W 095°02'0 0.0
2018-Feb-12 13:28N 29°37' W 095°02'0 0.0
2018-Feb-12 12:58N 29°37' W 095°02'0 0.0
2018-Feb-12 12:28N 29°37' W 095°02'0 0.0
2018-Feb-12 11:58N 29°37' W 095°02'0 0.0
2018-Feb-12 11:28N 29°37' W 095°02'0 0.0
2018-Feb-12 10:58N 29°37' W 095°02'0 0.0
2018-Feb-12 10:28N 29°37' W 095°02'0 0.0
2018-Feb-12 09:58N 29°37' W 095°02'0 0.0
2018-Feb-12 09:28N 29°37' W 095°02'0 0.0
2018-Feb-12 08:58N 29°37' W 095°02'0 0.0
2018-Feb-12 08:28N 29°37' W 095°02'0 0.0
2018-Feb-12 07:58N 29°37' W 095°02'0 0.0
2018-Feb-12 07:28N 29°37' W 095°02'0 0.0
2018-Feb-12 06:58N 29°37' W 095°02'0 0.0
2018-Feb-12 06:25N 29°37' W 095°02'0 0.0
2018-Feb-12 05:58N 29°37' W 095°02'0 0.0
2018-Feb-12 05:28N 29°37' W 095°02'0 0.0
2018-Feb-12 04:58N 29°37' W 095°02'0 0.0
2018-Feb-12 04:28N 29°37' W 095°02'0 0.0
2018-Feb-12 03:58N 29°37' W 095°02'0 0.6
2018-Feb-12 03:30N 29°37' W 095°01'3 6.0
2018-Feb-12 03:00N 29°37' W 094°58'5 9.6
2018-Feb-12 02:30N 29°33' W 094°55'611.1
2018-Feb-12 02:00N 29°28' W 094°51'611.3
2018-Feb-12 01:28N 29°23' W 094°48'510.3
2018-Feb-12 00:59N 29°21' W 094°43'610.7
2018-Feb-12 00:27N 29°18' W 094°37'4 8.5
2018-Feb-12 00:00N 29°17' W 094°33'3 5.3
2018-Feb-11 23:30N 29°19' W 094°34'0 0.1
2018-Feb-11 17:22N 29°19' W 094°34'0 0.0
2018-Feb-11 15:25N 29°19' W 094°34'0 0.0
2018-Feb-11 14:49N 29°19' W 094°34'0 0.0
2018-Feb-11 12:43N 29°19' W 094°34'0 0.0
2018-Feb-11 12:13N 29°19' W 094°34'0 0.0
2018-Feb-11 11:58N 29°19' W 094°34'0 0.0
2018-Feb-10 10:04N 29°19' W 094°34'0 0.2
2018-Feb-10 09:55N 29°19' W 094°34'0 0.0
2018-Feb-10 09:25N 29°19' W 094°34'0 0.0
2018-Feb-10 08:46N 29°19' W 094°34'0 0.0
2018-Feb-10 08:28N 29°19' W 094°34'214 4.8
2018-Feb-08 12:00N 27°00' W 091°30'8814.7 030 / 251023.3 21.019.4
2018-Feb-08 06:00N 26°06' W 090°12'62114.8 050 / 81023.010.8 23.320.9
2018-Feb-06 12:00N 18°30' W 082°36'   060 / 18
Track history (hours):
 
Tides and Currents Weather Stations Pressure Air Temp Water Temp Dewpoint Dewpoint Depression Visibility Wind Speed Wind Dir Waves Ship Positions

Florida Voyager

Owner: Chevron USA Inc., Washington, DC. More information available from US FCC via Universal Licensing System and Coast Guard Vessel Documentation Center.

Last reported at 2018-Feb-16 06:09 UTC. Time now 2018-Feb-19 02:36 UTC.
Position N 28°28' W 093°18'.

Length 183 m; draft 8.1 m.

Type: Tanker. MMSI: 367455580.

Date/timePositionNaut miles runAvg speedWind from/ knotsBaromVisibWave heightAir tempDewpointWater temp
2018-Feb-16 06:09N 28°28' W 093°18'1114.1
2018-Feb-16 05:24N 28°35' W 093°28'1014.1
2018-Feb-16 04:40N 28°41' W 093°37'314.1
2018-Feb-16 04:30N 28°43' W 093°39'713.8
2018-Feb-16 04:00N 28°46' W 093°46'612.6
2018-Feb-16 03:30N 28°50' W 093°52'612.4
2018-Feb-16 03:00N 28°53' W 093°58'612.3
2018-Feb-16 02:30N 28°57' W 094°03'712.5
2018-Feb-16 01:57N 29°01' W 094°10'612.5
2018-Feb-16 01:30N 29°04' W 094°15'712.5
2018-Feb-16 00:58N 29°08' W 094°22'612.2
2018-Feb-16 00:27N 29°10' W 094°28'512.3
2018-Feb-16 00:00N 29°14' W 094°33'711.4
2018-Feb-15 23:21N 29°19' W 094°39'3 9.3
2018-Feb-15 22:59N 29°21' W 094°42'2 0.2
2018-Feb-15 09:46N 29°21' W 094°45'0 0.0
2018-Feb-15 08:34N 29°21' W 094°45'0 0.0
2018-Feb-15 08:25N 29°21' W 094°45'0 0.0
2018-Feb-15 07:58N 29°21' W 094°45'0 0.1
2018-Feb-15 07:01N 29°21' W 094°45'0 0.1
2018-Feb-15 06:49N 29°21' W 094°45'0 0.1
2018-Feb-15 04:52N 29°21' W 094°45'0 0.1
2018-Feb-15 04:16N 29°21' W 094°45'0 0.0
2018-Feb-15 03:49N 29°21' W 094°45'0 0.1
2018-Feb-15 03:22N 29°21' W 094°45'0 0.0
2018-Feb-15 02:52N 29°21' W 094°45'0 0.0
2018-Feb-14 17:49N 29°21' W 094°44'0 0.0
2018-Feb-14 17:13N 29°21' W 094°44'0 0.1
2018-Feb-14 16:58N 29°21' W 094°44'0 0.0
2018-Feb-14 15:40N 29°21' W 094°44'0 0.0
2018-Feb-14 04:19N 29°21' W 094°45'5 0.4
2018-Feb-13 16:22N 29°24' W 094°49'512.9
2018-Feb-13 15:59N 29°29' W 094°52'612.3
2018-Feb-13 15:30N 29°34' W 094°55'4 8.6
2018-Feb-13 15:00N 29°37' W 094°59'2 4.8
2018-Feb-13 14:30N 29°37' W 095°02'0 0.1
2018-Feb-13 13:58N 29°37' W 095°02'0 0.0
2018-Feb-13 13:25N 29°37' W 095°02'0 0.0
2018-Feb-13 12:58N 29°37' W 095°02'0 0.0
2018-Feb-13 12:28N 29°37' W 095°02'0 0.0
2018-Feb-13 11:55N 29°37' W 095°02'0 0.0
2018-Feb-13 11:28N 29°37' W 095°02'0 0.0
2018-Feb-13 10:58N 29°37' W 095°02'0 0.0
2018-Feb-13 10:28N 29°37' W 095°02'0 0.0
2018-Feb-13 09:58N 29°37' W 095°02'0 0.0
2018-Feb-13 02:07N 29°37' W 095°02'0 0.0
2018-Feb-13 01:58N 29°37' W 095°02'0 0.0
2018-Feb-13 01:25N 29°37' W 095°02'0 0.0
2018-Feb-13 00:55N 29°37' W 095°02'0 0.0
2018-Feb-13 00:28N 29°37' W 095°02'0 0.0
2018-Feb-12 23:58N 29°37' W 095°02'0 0.0
2018-Feb-12 23:28N 29°37' W 095°02'0 0.0
2018-Feb-12 22:58N 29°37' W 095°02'0 0.0
2018-Feb-12 22:28N 29°37' W 095°02'0 0.0
2018-Feb-12 21:58N 29°37' W 095°02'0 0.0
2018-Feb-12 21:28N 29°37' W 095°02'0 0.0
2018-Feb-12 20:58N 29°37' W 095°02'0 0.0
2018-Feb-12 20:28N 29°37' W 095°02'0 0.0
2018-Feb-12 19:58N 29°37' W 095°02'0 0.0
2018-Feb-12 19:28N 29°37' W 095°02'0 0.0
2018-Feb-12 18:58N 29°37' W 095°02'0 0.0
2018-Feb-12 18:25N 29°37' W 095°02'0 0.0
2018-Feb-12 17:58N 29°37' W 095°02'0 0.0
2018-Feb-12 17:28N 29°37' W 095°02'0 0.0
2018-Feb-12 16:55N 29°37' W 095°02'0 0.0
2018-Feb-12 16:28N 29°37' W 095°02'0 0.0
2018-Feb-12 15:58N 29°37' W 095°02'0 0.0
2018-Feb-12 15:16N 29°37' W 095°02'0 0.0
2018-Feb-12 14:58N 29°37' W 095°02'0 0.0
2018-Feb-12 14:28N 29°37' W 095°02'0 0.0
2018-Feb-12 13:58N 29°37' W 095°02'0 0.0
2018-Feb-12 13:28N 29°37' W 095°02'0 0.0
2018-Feb-12 12:58N 29°37' W 095°02'0 0.0
2018-Feb-12 12:28N 29°37' W 095°02'0 0.0
2018-Feb-12 11:58N 29°37' W 095°02'0 0.0
2018-Feb-12 11:28N 29°37' W 095°02'0 0.0
2018-Feb-12 10:58N 29°37' W 095°02'0 0.0
2018-Feb-12 10:28N 29°37' W 095°02'0 0.0
2018-Feb-12 09:58N 29°37' W 095°02'0 0.0
2018-Feb-12 09:28N 29°37' W 095°02'0 0.0
2018-Feb-12 08:58N 29°37' W 095°02'0 0.0
2018-Feb-12 08:28N 29°37' W 095°02'0 0.0
2018-Feb-12 07:58N 29°37' W 095°02'0 0.0
2018-Feb-12 07:28N 29°37' W 095°02'0 0.0
2018-Feb-12 06:58N 29°37' W 095°02'0 0.0
2018-Feb-12 06:25N 29°37' W 095°02'0 0.0
2018-Feb-12 05:58N 29°37' W 095°02'0 0.0
2018-Feb-12 05:28N 29°37' W 095°02'0 0.0
2018-Feb-12 04:58N 29°37' W 095°02'0 0.0
2018-Feb-12 04:28N 29°37' W 095°02'0 0.0
2018-Feb-12 03:58N 29°37' W 095°02'0 0.6
2018-Feb-12 03:30N 29°37' W 095°01'3 6.0
2018-Feb-12 03:00N 29°37' W 094°58'5 9.6
2018-Feb-12 02:30N 29°33' W 094°55'611.1
2018-Feb-12 02:00N 29°28' W 094°51'611.3
2018-Feb-12 01:28N 29°23' W 094°48'510.3
2018-Feb-12 00:59N 29°21' W 094°43'610.7
2018-Feb-12 00:27N 29°18' W 094°37'4 8.5
2018-Feb-12 00:00N 29°17' W 094°33'3 5.3
2018-Feb-11 23:30N 29°19' W 094°34'0 0.1
2018-Feb-11 17:22N 29°19' W 094°34'0 0.0
2018-Feb-11 15:25N 29°19' W 094°34'0 0.0
2018-Feb-11 14:49N 29°19' W 094°34'0 0.0
2018-Feb-11 12:43N 29°19' W 094°34'0 0.0
2018-Feb-11 12:13N 29°19' W 094°34'0 0.0
2018-Feb-11 11:58N 29°19' W 094°34'0 0.0
2018-Feb-10 10:04N 29°19' W 094°34'0 0.2
2018-Feb-10 09:55N 29°19' W 094°34'0 0.0
2018-Feb-10 09:25N 29°19' W 094°34'0 0.0
2018-Feb-10 08:46N 29°19' W 094°34'0 0.0
2018-Feb-10 08:28N 29°19' W 094°34'214 4.8
2018-Feb-08 12:00N 27°00' W 091°30'8814.7 030 / 251023.3 21.019.4
2018-Feb-08 06:00N 26°06' W 090°12'62114.8 050 / 81023.010.8 23.320.9
2018-Feb-06 12:00N 18°30' W 082°36'   060 / 18

Dump ship's entire track history